sensor_id;sensor_type;location;lat;lon;timestamp;P1;durP1;ratioP1;P2;durP2;ratioP2
29210;SDS011;16250;49.932;10.980;2024-03-17T00:00:40;5.30;;;4.53;;
29210;SDS011;16250;49.932;10.980;2024-03-17T00:03:06;6.22;;;4.22;;
29210;SDS011;16250;49.932;10.980;2024-03-17T00:05:33;6.32;;;4.93;;
29210;SDS011;16250;49.932;10.980;2024-03-17T00:08:00;6.55;;;4.70;;
29210;SDS011;16250;49.932;10.980;2024-03-17T00:10:25;6.18;;;4.90;;
29210;SDS011;16250;49.932;10.980;2024-03-17T00:12:51;7.50;;;5.43;;
29210;SDS011;16250;49.932;10.980;2024-03-17T00:15:16;13.00;;;10.00;;
29210;SDS011;16250;49.932;10.980;2024-03-17T00:17:42;11.20;;;7.25;;
29210;SDS011;16250;49.932;10.980;2024-03-17T00:20:08;6.90;;;6.03;;
29210;SDS011;16250;49.932;10.980;2024-03-17T00:22:39;8.40;;;6.50;;
29210;SDS011;16250;49.932;10.980;2024-03-17T00:25:06;6.95;;;6.00;;
29210;SDS011;16250;49.932;10.980;2024-03-17T00:27:32;7.78;;;6.70;;
29210;SDS011;16250;49.932;10.980;2024-03-17T00:29:58;8.32;;;6.88;;
29210;SDS011;16250;49.932;10.980;2024-03-17T00:32:23;6.40;;;5.35;;
29210;SDS011;16250;49.932;10.980;2024-03-17T00:34:49;8.88;;;5.43;;
29210;SDS011;16250;49.932;10.980;2024-03-17T00:37:14;6.63;;;4.63;;
29210;SDS011;16250;49.932;10.980;2024-03-17T00:39:40;4.82;;;4.25;;
29210;SDS011;16250;49.932;10.980;2024-03-17T00:42:05;6.50;;;4.90;;
29210;SDS011;16250;49.932;10.980;2024-03-17T00:44:31;6.50;;;4.53;;
29210;SDS011;16250;49.932;10.980;2024-03-17T00:46:57;8.70;;;4.65;;
29210;SDS011;16250;49.932;10.980;2024-03-17T00:49:22;6.45;;;4.13;;
29210;SDS011;16250;49.932;10.980;2024-03-17T00:51:47;4.55;;;3.80;;
29210;SDS011;16250;49.932;10.980;2024-03-17T00:54:15;4.82;;;3.90;;
29210;SDS011;16250;49.932;10.980;2024-03-17T00:56:43;4.53;;;3.83;;
29210;SDS011;16250;49.932;10.980;2024-03-17T00:59:08;5.95;;;4.20;;
29210;SDS011;16250;49.932;10.980;2024-03-17T01:01:33;7.15;;;4.13;;
29210;SDS011;16250;49.932;10.980;2024-03-17T01:03:59;5.47;;;4.18;;
29210;SDS011;16250;49.932;10.980;2024-03-17T01:06:24;6.47;;;3.97;;
29210;SDS011;16250;49.932;10.980;2024-03-17T01:08:49;6.95;;;4.10;;
29210;SDS011;16250;49.932;10.980;2024-03-17T01:11:16;6.60;;;4.38;;
29210;SDS011;16250;49.932;10.980;2024-03-17T01:13:43;4.80;;;4.00;;
29210;SDS011;16250;49.932;10.980;2024-03-17T01:16:09;6.18;;;4.35;;
29210;SDS011;16250;49.932;10.980;2024-03-17T01:18:35;5.13;;;4.15;;
29210;SDS011;16250;49.932;10.980;2024-03-17T01:21:02;4.82;;;4.22;;
29210;SDS011;16250;49.932;10.980;2024-03-17T01:23:27;4.72;;;3.92;;
29210;SDS011;16250;49.932;10.980;2024-03-17T01:25:53;4.93;;;3.88;;
29210;SDS011;16250;49.932;10.980;2024-03-17T01:28:18;4.78;;;4.20;;
29210;SDS011;16250;49.932;10.980;2024-03-17T01:30:43;5.78;;;4.03;;
29210;SDS011;16250;49.932;10.980;2024-03-17T01:33:09;6.40;;;3.88;;
29210;SDS011;16250;49.932;10.980;2024-03-17T01:35:35;5.82;;;4.00;;
29210;SDS011;16250;49.932;10.980;2024-03-17T01:38:01;7.22;;;4.07;;
29210;SDS011;16250;49.932;10.980;2024-03-17T01:40:26;6.70;;;4.60;;
29210;SDS011;16250;49.932;10.980;2024-03-17T01:42:52;5.05;;;4.03;;
29210;SDS011;16250;49.932;10.980;2024-03-17T01:47:52;6.38;;;3.72;;
29210;SDS011;16250;49.932;10.980;2024-03-17T01:50:18;6.57;;;4.00;;
29210;SDS011;16250;49.932;10.980;2024-03-17T01:52:50;6.22;;;3.97;;
29210;SDS011;16250;49.932;10.980;2024-03-17T01:55:16;5.43;;;3.55;;
29210;SDS011;16250;49.932;10.980;2024-03-17T01:57:42;6.80;;;3.72;;
29210;SDS011;16250;49.932;10.980;2024-03-17T02:00:07;4.80;;;3.53;;
29210;SDS011;16250;49.932;10.980;2024-03-17T02:02:34;5.07;;;3.70;;
29210;SDS011;16250;49.932;10.980;2024-03-17T02:05:00;4.07;;;3.38;;
29210;SDS011;16250;49.932;10.980;2024-03-17T02:07:26;4.93;;;3.28;;
29210;SDS011;16250;49.932;10.980;2024-03-17T02:09:51;6.18;;;4.05;;
29210;SDS011;16250;49.932;10.980;2024-03-17T02:12:17;6.78;;;4.05;;
29210;SDS011;16250;49.932;10.980;2024-03-17T02:14:42;5.95;;;3.70;;
29210;SDS011;16250;49.932;10.980;2024-03-17T02:17:07;5.28;;;4.10;;
29210;SDS011;16250;49.932;10.980;2024-03-17T02:19:33;5.75;;;4.80;;
29210;SDS011;16250;49.932;10.980;2024-03-17T02:21:59;4.88;;;3.92;;
29210;SDS011;16250;49.932;10.980;2024-03-17T02:24:25;5.72;;;4.35;;
29210;SDS011;16250;49.932;10.980;2024-03-17T02:26:50;6.15;;;3.90;;
29210;SDS011;16250;49.932;10.980;2024-03-17T02:29:15;5.18;;;4.10;;
29210;SDS011;16250;49.932;10.980;2024-03-17T02:31:41;6.15;;;3.90;;
29210;SDS011;16250;49.932;10.980;2024-03-17T02:34:06;5.45;;;3.83;;
29210;SDS011;16250;49.932;10.980;2024-03-17T02:36:31;4.88;;;3.50;;
29210;SDS011;16250;49.932;10.980;2024-03-17T02:38:57;4.72;;;3.60;;
29210;SDS011;16250;49.932;10.980;2024-03-17T02:41:44;4.03;;;3.40;;
29210;SDS011;16250;49.932;10.980;2024-03-17T02:44:11;4.82;;;3.67;;
29210;SDS011;16250;49.932;10.980;2024-03-17T02:46:36;4.43;;;4.00;;
29210;SDS011;16250;49.932;10.980;2024-03-17T02:49:02;5.72;;;4.03;;
29210;SDS011;16250;49.932;10.980;2024-03-17T02:51:28;6.43;;;4.43;;
29210;SDS011;16250;49.932;10.980;2024-03-17T02:53:54;5.60;;;4.68;;
29210;SDS011;16250;49.932;10.980;2024-03-17T02:56:19;5.35;;;3.75;;
29210;SDS011;16250;49.932;10.980;2024-03-17T02:58:45;6.40;;;4.50;;
29210;SDS011;16250;49.932;10.980;2024-03-17T03:01:11;5.43;;;4.30;;
29210;SDS011;16250;49.932;10.980;2024-03-17T03:03:37;5.28;;;4.40;;
29210;SDS011;16250;49.932;10.980;2024-03-17T03:06:03;6.95;;;4.55;;
29210;SDS011;16250;49.932;10.980;2024-03-17T03:08:34;5.50;;;4.10;;
29210;SDS011;16250;49.932;10.980;2024-03-17T03:11:00;8.00;;;4.25;;
29210;SDS011;16250;49.932;10.980;2024-03-17T03:13:26;5.95;;;4.53;;
29210;SDS011;16250;49.932;10.980;2024-03-17T03:15:51;6.68;;;4.63;;
29210;SDS011;16250;49.932;10.980;2024-03-17T03:18:17;8.40;;;4.85;;
29210;SDS011;16250;49.932;10.980;2024-03-17T03:20:43;7.78;;;5.00;;
29210;SDS011;16250;49.932;10.980;2024-03-17T03:23:15;5.60;;;4.28;;
29210;SDS011;16250;49.932;10.980;2024-03-17T03:25:40;6.28;;;4.88;;
29210;SDS011;16250;49.932;10.980;2024-03-17T03:28:06;6.20;;;4.43;;
29210;SDS011;16250;49.932;10.980;2024-03-17T03:30:35;5.90;;;5.10;;
29210;SDS011;16250;49.932;10.980;2024-03-17T03:33:01;7.05;;;4.78;;
29210;SDS011;16250;49.932;10.980;2024-03-17T03:35:29;5.53;;;4.65;;
29210;SDS011;16250;49.932;10.980;2024-03-17T03:37:55;6.10;;;4.47;;
29210;SDS011;16250;49.932;10.980;2024-03-17T03:40:21;6.53;;;4.85;;
29210;SDS011;16250;49.932;10.980;2024-03-17T03:42:46;7.30;;;4.68;;
29210;SDS011;16250;49.932;10.980;2024-03-17T03:45:12;7.13;;;5.03;;
29210;SDS011;16250;49.932;10.980;2024-03-17T03:47:41;6.07;;;4.55;;
29210;SDS011;16250;49.932;10.980;2024-03-17T03:50:07;8.68;;;5.35;;
29210;SDS011;16250;49.932;10.980;2024-03-17T03:52:37;6.28;;;4.60;;
29210;SDS011;16250;49.932;10.980;2024-03-17T03:55:03;6.53;;;4.97;;
29210;SDS011;16250;49.932;10.980;2024-03-17T03:57:29;8.82;;;5.55;;
29210;SDS011;16250;49.932;10.980;2024-03-17T03:59:55;5.95;;;5.35;;
29210;SDS011;16250;49.932;10.980;2024-03-17T04:02:21;7.28;;;5.22;;
29210;SDS011;16250;49.932;10.980;2024-03-17T04:04:47;6.70;;;5.05;;
29210;SDS011;16250;49.932;10.980;2024-03-17T04:07:13;8.35;;;5.15;;
29210;SDS011;16250;49.932;10.980;2024-03-17T04:09:38;7.43;;;5.18;;
29210;SDS011;16250;49.932;10.980;2024-03-17T04:12:04;6.03;;;4.70;;
29210;SDS011;16250;49.932;10.980;2024-03-17T04:14:29;7.00;;;5.50;;
29210;SDS011;16250;49.932;10.980;2024-03-17T04:16:55;5.95;;;5.20;;
29210;SDS011;16250;49.932;10.980;2024-03-17T04:19:21;6.20;;;4.85;;
29210;SDS011;16250;49.932;10.980;2024-03-17T04:21:46;5.82;;;4.95;;
29210;SDS011;16250;49.932;10.980;2024-03-17T04:24:12;6.68;;;4.90;;
29210;SDS011;16250;49.932;10.980;2024-03-17T04:26:37;5.90;;;4.57;;
29210;SDS011;16250;49.932;10.980;2024-03-17T04:29:03;5.32;;;4.25;;
29210;SDS011;16250;49.932;10.980;2024-03-17T04:31:30;7.65;;;4.18;;
29210;SDS011;16250;49.932;10.980;2024-03-17T04:33:56;6.22;;;4.78;;
29210;SDS011;16250;49.932;10.980;2024-03-17T04:36:21;10.60;;;7.15;;
29210;SDS011;16250;49.932;10.980;2024-03-17T04:38:47;6.90;;;6.07;;
29210;SDS011;16250;49.932;10.980;2024-03-17T04:41:19;8.57;;;5.20;;
29210;SDS011;16250;49.932;10.980;2024-03-17T04:43:44;6.78;;;4.97;;
29210;SDS011;16250;49.932;10.980;2024-03-17T04:46:09;6.85;;;5.90;;
29210;SDS011;16250;49.932;10.980;2024-03-17T04:48:37;6.93;;;5.40;;
29210;SDS011;16250;49.932;10.980;2024-03-17T04:51:02;7.50;;;5.30;;
29210;SDS011;16250;49.932;10.980;2024-03-17T04:53:28;5.90;;;4.65;;
29210;SDS011;16250;49.932;10.980;2024-03-17T04:56:04;6.10;;;4.20;;
29210;SDS011;16250;49.932;10.980;2024-03-17T04:58:33;6.03;;;4.75;;
29210;SDS011;16250;49.932;10.980;2024-03-17T05:01:08;5.18;;;4.65;;
29210;SDS011;16250;49.932;10.980;2024-03-17T05:03:34;8.38;;;6.20;;
29210;SDS011;16250;49.932;10.980;2024-03-17T05:06:00;6.32;;;4.50;;
29210;SDS011;16250;49.932;10.980;2024-03-17T05:08:26;7.03;;;4.43;;
29210;SDS011;16250;49.932;10.980;2024-03-17T05:10:56;6.13;;;4.85;;
29210;SDS011;16250;49.932;10.980;2024-03-17T05:13:22;6.13;;;4.63;;
29210;SDS011;16250;49.932;10.980;2024-03-17T05:15:47;6.82;;;4.75;;
29210;SDS011;16250;49.932;10.980;2024-03-17T05:18:13;7.35;;;4.13;;
29210;SDS011;16250;49.932;10.980;2024-03-17T05:20:38;4.60;;;4.07;;
29210;SDS011;16250;49.932;10.980;2024-03-17T05:23:03;4.93;;;4.32;;
29210;SDS011;16250;49.932;10.980;2024-03-17T05:25:29;5.72;;;4.63;;
29210;SDS011;16250;49.932;10.980;2024-03-17T05:27:55;4.50;;;4.05;;
29210;SDS011;16250;49.932;10.980;2024-03-17T05:30:20;6.18;;;4.47;;
29210;SDS011;16250;49.932;10.980;2024-03-17T05:32:45;7.93;;;4.00;;
29210;SDS011;16250;49.932;10.980;2024-03-17T05:35:11;5.65;;;4.25;;
29210;SDS011;16250;49.932;10.980;2024-03-17T05:37:36;6.68;;;4.35;;
29210;SDS011;16250;49.932;10.980;2024-03-17T05:40:02;6.00;;;4.40;;
29210;SDS011;16250;49.932;10.980;2024-03-17T05:42:27;6.68;;;4.35;;
29210;SDS011;16250;49.932;10.980;2024-03-17T05:44:53;9.63;;;4.55;;
29210;SDS011;16250;49.932;10.980;2024-03-17T05:47:18;7.68;;;4.50;;
29210;SDS011;16250;49.932;10.980;2024-03-17T05:49:44;5.90;;;4.13;;
29210;SDS011;16250;49.932;10.980;2024-03-17T05:54:38;5.53;;;4.15;;
29210;SDS011;16250;49.932;10.980;2024-03-17T05:57:04;6.25;;;4.60;;
29210;SDS011;16250;49.932;10.980;2024-03-17T05:59:29;6.30;;;4.15;;
29210;SDS011;16250;49.932;10.980;2024-03-17T06:01:56;7.30;;;4.75;;
29210;SDS011;16250;49.932;10.980;2024-03-17T06:04:21;6.28;;;4.78;;
29210;SDS011;16250;49.932;10.980;2024-03-17T06:06:47;5.55;;;4.80;;
29210;SDS011;16250;49.932;10.980;2024-03-17T06:09:13;8.52;;;5.20;;
29210;SDS011;16250;49.932;10.980;2024-03-17T06:11:42;6.93;;;4.97;;
29210;SDS011;16250;49.932;10.980;2024-03-17T06:14:08;6.18;;;4.65;;
29210;SDS011;16250;49.932;10.980;2024-03-17T06:16:36;7.15;;;4.82;;
29210;SDS011;16250;49.932;10.980;2024-03-17T06:19:02;5.93;;;5.32;;
29210;SDS011;16250;49.932;10.980;2024-03-17T06:21:28;6.70;;;5.03;;
29210;SDS011;16250;49.932;10.980;2024-03-17T06:23:53;5.47;;;4.68;;
29210;SDS011;16250;49.932;10.980;2024-03-17T06:26:19;6.55;;;4.88;;
29210;SDS011;16250;49.932;10.980;2024-03-17T06:28:45;7.20;;;6.00;;
29210;SDS011;16250;49.932;10.980;2024-03-17T06:31:11;7.82;;;5.07;;
29210;SDS011;16250;49.932;10.980;2024-03-17T06:33:36;7.55;;;5.43;;
29210;SDS011;16250;49.932;10.980;2024-03-17T06:36:02;6.90;;;5.13;;
29210;SDS011;16250;49.932;10.980;2024-03-17T06:38:32;7.40;;;4.95;;
29210;SDS011;16250;49.932;10.980;2024-03-17T06:40:57;9.60;;;8.00;;
29210;SDS011;16250;49.932;10.980;2024-03-17T06:43:23;7.78;;;6.45;;
29210;SDS011;16250;49.932;10.980;2024-03-17T06:45:55;6.15;;;5.45;;
29210;SDS011;16250;49.932;10.980;2024-03-17T06:48:24;8.80;;;5.80;;
29210;SDS011;16250;49.932;10.980;2024-03-17T06:50:50;5.82;;;5.20;;
29210;SDS011;16250;49.932;10.980;2024-03-17T06:53:17;10.02;;;5.68;;
29210;SDS011;16250;49.932;10.980;2024-03-17T06:55:44;6.80;;;4.80;;
29210;SDS011;16250;49.932;10.980;2024-03-17T06:58:11;5.90;;;4.93;;
29210;SDS011;16250;49.932;10.980;2024-03-17T07:00:36;5.60;;;4.88;;
29210;SDS011;16250;49.932;10.980;2024-03-17T07:03:02;7.22;;;4.72;;
29210;SDS011;16250;49.932;10.980;2024-03-17T07:05:27;5.18;;;4.63;;
29210;SDS011;16250;49.932;10.980;2024-03-17T07:07:55;6.90;;;4.78;;
29210;SDS011;16250;49.932;10.980;2024-03-17T07:10:21;6.82;;;5.32;;
29210;SDS011;16250;49.932;10.980;2024-03-17T07:12:46;5.82;;;4.35;;
29210;SDS011;16250;49.932;10.980;2024-03-17T07:15:12;5.20;;;4.50;;
29210;SDS011;16250;49.932;10.980;2024-03-17T07:17:37;4.75;;;4.30;;
29210;SDS011;16250;49.932;10.980;2024-03-17T07:20:03;6.05;;;4.70;;
29210;SDS011;16250;49.932;10.980;2024-03-17T07:22:33;5.15;;;4.65;;
29210;SDS011;16250;49.932;10.980;2024-03-17T07:24:58;6.78;;;5.78;;
29210;SDS011;16250;49.932;10.980;2024-03-17T07:27:26;7.15;;;5.38;;
29210;SDS011;16250;49.932;10.980;2024-03-17T07:29:56;7.60;;;5.32;;
29210;SDS011;16250;49.932;10.980;2024-03-17T07:32:21;8.18;;;5.03;;
29210;SDS011;16250;49.932;10.980;2024-03-17T07:34:48;6.85;;;5.03;;
29210;SDS011;16250;49.932;10.980;2024-03-17T07:37:15;5.95;;;5.15;;
29210;SDS011;16250;49.932;10.980;2024-03-17T07:39:40;6.45;;;5.40;;
29210;SDS011;16250;49.932;10.980;2024-03-17T07:42:05;7.28;;;5.05;;
29210;SDS011;16250;49.932;10.980;2024-03-17T07:44:32;6.78;;;5.95;;
29210;SDS011;16250;49.932;10.980;2024-03-17T07:47:02;5.45;;;4.93;;
29210;SDS011;16250;49.932;10.980;2024-03-17T07:49:30;6.75;;;5.05;;
29210;SDS011;16250;49.932;10.980;2024-03-17T07:51:56;5.68;;;4.97;;
29210;SDS011;16250;49.932;10.980;2024-03-17T07:54:23;9.65;;;5.60;;
29210;SDS011;16250;49.932;10.980;2024-03-17T07:56:51;7.03;;;5.03;;
29210;SDS011;16250;49.932;10.980;2024-03-17T07:59:16;7.25;;;5.70;;
29210;SDS011;16250;49.932;10.980;2024-03-17T08:01:43;7.28;;;6.05;;
29210;SDS011;16250;49.932;10.980;2024-03-17T08:04:09;6.25;;;5.65;;
29210;SDS011;16250;49.932;10.980;2024-03-17T08:06:36;7.25;;;5.28;;
29210;SDS011;16250;49.932;10.980;2024-03-17T08:09:03;6.13;;;5.53;;
29210;SDS011;16250;49.932;10.980;2024-03-17T08:11:28;6.43;;;5.00;;
29210;SDS011;16250;49.932;10.980;2024-03-17T08:13:53;6.85;;;5.03;;
29210;SDS011;16250;49.932;10.980;2024-03-17T08:16:20;5.97;;;5.15;;
29210;SDS011;16250;49.932;10.980;2024-03-17T08:18:45;13.43;;;10.52;;
29210;SDS011;16250;49.932;10.980;2024-03-17T08:21:11;18.20;;;13.00;;
29210;SDS011;16250;49.932;10.980;2024-03-17T08:23:36;19.70;;;13.00;;
29210;SDS011;16250;49.932;10.980;2024-03-17T08:26:06;7.97;;;6.35;;
29210;SDS011;16250;49.932;10.980;2024-03-17T08:28:31;9.05;;;6.70;;
29210;SDS011;16250;49.932;10.980;2024-03-17T08:30:57;8.95;;;6.50;;
29210;SDS011;16250;49.932;10.980;2024-03-17T08:33:23;8.50;;;6.10;;
29210;SDS011;16250;49.932;10.980;2024-03-17T08:35:56;6.90;;;6.20;;
29210;SDS011;16250;49.932;10.980;2024-03-17T08:38:23;7.07;;;6.30;;
29210;SDS011;16250;49.932;10.980;2024-03-17T08:40:52;8.70;;;6.10;;
29210;SDS011;16250;49.932;10.980;2024-03-17T08:43:18;7.25;;;6.38;;
29210;SDS011;16250;49.932;10.980;2024-03-17T08:45:44;7.18;;;5.90;;
29210;SDS011;16250;49.932;10.980;2024-03-17T08:48:10;7.35;;;6.25;;
29210;SDS011;16250;49.932;10.980;2024-03-17T08:50:36;7.13;;;5.90;;
29210;SDS011;16250;49.932;10.980;2024-03-17T08:53:01;7.05;;;6.35;;
29210;SDS011;16250;49.932;10.980;2024-03-17T08:55:27;6.45;;;5.80;;
29210;SDS011;16250;49.932;10.980;2024-03-17T08:57:53;6.75;;;5.80;;
29210;SDS011;16250;49.932;10.980;2024-03-17T09:00:18;7.40;;;5.70;;
29210;SDS011;16250;49.932;10.980;2024-03-17T09:02:43;8.25;;;4.97;;
29210;SDS011;16250;49.932;10.980;2024-03-17T09:05:09;6.68;;;5.45;;
29210;SDS011;16250;49.932;10.980;2024-03-17T09:07:34;6.15;;;4.95;;
29210;SDS011;16250;49.932;10.980;2024-03-17T09:09:59;5.60;;;5.10;;
29210;SDS011;16250;49.932;10.980;2024-03-17T09:12:28;6.13;;;5.53;;
29210;SDS011;16250;49.932;10.980;2024-03-17T09:14:53;6.50;;;5.88;;
29210;SDS011;16250;49.932;10.980;2024-03-17T09:17:19;7.97;;;6.55;;
29210;SDS011;16250;49.932;10.980;2024-03-17T09:19:46;8.25;;;6.50;;
29210;SDS011;16250;49.932;10.980;2024-03-17T09:22:12;8.13;;;6.07;;
29210;SDS011;16250;49.932;10.980;2024-03-17T09:24:38;8.18;;;6.15;;
29210;SDS011;16250;49.932;10.980;2024-03-17T09:27:03;7.78;;;6.45;;
29210;SDS011;16250;49.932;10.980;2024-03-17T09:29:30;9.48;;;6.03;;
29210;SDS011;16250;49.932;10.980;2024-03-17T09:31:55;5.75;;;5.22;;
29210;SDS011;16250;49.932;10.980;2024-03-17T09:34:21;6.38;;;5.35;;
29210;SDS011;16250;49.932;10.980;2024-03-17T09:36:46;7.65;;;5.82;;
29210;SDS011;16250;49.932;10.980;2024-03-17T09:39:12;6.78;;;5.72;;
29210;SDS011;16250;49.932;10.980;2024-03-17T09:41:39;7.63;;;5.05;;
29210;SDS011;16250;49.932;10.980;2024-03-17T09:44:05;6.90;;;5.22;;
29210;SDS011;16250;49.932;10.980;2024-03-17T09:46:31;6.50;;;5.35;;
29210;SDS011;16250;49.932;10.980;2024-03-17T09:48:56;6.32;;;5.30;;
29210;SDS011;16250;49.932;10.980;2024-03-17T09:51:23;5.57;;;5.07;;
29210;SDS011;16250;49.932;10.980;2024-03-17T09:53:50;7.45;;;5.32;;
29210;SDS011;16250;49.932;10.980;2024-03-17T09:56:16;5.70;;;5.10;;
29210;SDS011;16250;49.932;10.980;2024-03-17T09:58:46;6.53;;;5.43;;
29210;SDS011;16250;49.932;10.980;2024-03-17T10:01:12;6.50;;;5.63;;
29210;SDS011;16250;49.932;10.980;2024-03-17T10:06:17;7.20;;;5.28;;
29210;SDS011;16250;49.932;10.980;2024-03-17T10:08:48;5.95;;;5.35;;
29210;SDS011;16250;49.932;10.980;2024-03-17T10:11:15;7.60;;;5.80;;
29210;SDS011;16250;49.932;10.980;2024-03-17T10:13:45;6.68;;;5.93;;
29210;SDS011;16250;49.932;10.980;2024-03-17T10:16:24;7.35;;;5.65;;
29210;SDS011;16250;49.932;10.980;2024-03-17T10:18:51;6.55;;;5.07;;
29210;SDS011;16250;49.932;10.980;2024-03-17T10:21:31;8.38;;;5.40;;
29210;SDS011;16250;49.932;10.980;2024-03-17T10:24:13;6.82;;;5.70;;
29210;SDS011;16250;49.932;10.980;2024-03-17T10:26:46;6.70;;;5.35;;
29210;SDS011;16250;49.932;10.980;2024-03-17T10:31:55;6.10;;;5.15;;
29210;SDS011;16250;49.932;10.980;2024-03-17T10:34:31;6.13;;;5.28;;
29210;SDS011;16250;49.932;10.980;2024-03-17T10:37:05;6.43;;;5.35;;
29210;SDS011;16250;49.932;10.980;2024-03-17T10:39:31;5.60;;;4.75;;
29210;SDS011;16250;49.932;10.980;2024-03-17T10:41:58;6.97;;;5.22;;
29210;SDS011;16250;49.932;10.980;2024-03-17T10:44:28;6.00;;;5.40;;
29210;SDS011;16250;49.932;10.980;2024-03-17T10:46:54;8.48;;;5.38;;
29210;SDS011;16250;49.932;10.980;2024-03-17T10:49:23;6.25;;;5.25;;
29210;SDS011;16250;49.932;10.980;2024-03-17T10:51:50;6.10;;;5.50;;
29210;SDS011;16250;49.932;10.980;2024-03-17T10:54:23;6.10;;;5.50;;
29210;SDS011;16250;49.932;10.980;2024-03-17T10:59:28;6.80;;;5.47;;
29210;SDS011;16250;49.932;10.980;2024-03-17T11:02:04;7.45;;;5.35;;
29210;SDS011;16250;49.932;10.980;2024-03-17T11:04:42;6.40;;;5.78;;
29210;SDS011;16250;49.932;10.980;2024-03-17T11:07:08;6.90;;;5.32;;
29210;SDS011;16250;49.932;10.980;2024-03-17T11:09:41;6.38;;;5.20;;
29210;SDS011;16250;49.932;10.980;2024-03-17T11:12:31;6.72;;;5.72;;
29210;SDS011;16250;49.932;10.980;2024-03-17T11:20:35;6.80;;;5.10;;
29210;SDS011;16250;49.932;10.980;2024-03-17T11:23:04;8.05;;;5.32;;
29210;SDS011;16250;49.932;10.980;2024-03-17T11:25:37;6.00;;;5.22;;
29210;SDS011;16250;49.932;10.980;2024-03-17T11:28:09;6.47;;;5.47;;
29210;SDS011;16250;49.932;10.980;2024-03-17T11:38:52;8.30;;;6.20;;
29210;SDS011;16250;49.932;10.980;2024-03-17T11:47:00;6.45;;;5.57;;
29210;SDS011;16250;49.932;10.980;2024-03-17T11:49:29;6.22;;;5.38;;
29210;SDS011;16250;49.932;10.980;2024-03-17T11:51:58;5.95;;;5.35;;
29210;SDS011;16250;49.932;10.980;2024-03-17T11:54:34;6.47;;;5.53;;
29210;SDS011;16250;49.932;10.980;2024-03-17T11:57:58;6.32;;;5.68;;
29210;SDS011;16250;49.932;10.980;2024-03-17T12:00:32;6.30;;;5.70;;
29210;SDS011;16250;49.932;10.980;2024-03-17T12:03:01;6.13;;;5.53;;
29210;SDS011;16250;49.932;10.980;2024-03-17T12:09:32;6.20;;;5.45;;
29210;SDS011;16250;49.932;10.980;2024-03-17T12:12:48;6.30;;;5.70;;
29210;SDS011;16250;49.932;10.980;2024-03-17T12:19:25;6.13;;;5.47;;
29210;SDS011;16250;49.932;10.980;2024-03-17T12:22:42;6.15;;;5.10;;
29210;SDS011;16250;49.932;10.980;2024-03-17T12:25:43;7.43;;;5.30;;
29210;SDS011;16250;49.932;10.980;2024-03-17T12:36:03;6.38;;;5.47;;
29210;SDS011;16250;49.932;10.980;2024-03-17T12:39:24;7.25;;;5.65;;
29210;SDS011;16250;49.932;10.980;2024-03-17T12:42:15;7.13;;;5.72;;
29210;SDS011;16250;49.932;10.980;2024-03-17T12:44:58;6.78;;;5.85;;
29210;SDS011;16250;49.932;10.980;2024-03-17T12:47:26;6.45;;;5.85;;
29210;SDS011;16250;49.932;10.980;2024-03-17T12:49:55;7.60;;;6.13;;
29210;SDS011;16250;49.932;10.980;2024-03-17T12:52:39;6.30;;;5.70;;
29210;SDS011;16250;49.932;10.980;2024-03-17T12:55:05;7.28;;;6.15;;
29210;SDS011;16250;49.932;10.980;2024-03-17T12:57:51;6.80;;;6.10;;
29210;SDS011;16250;49.932;10.980;2024-03-17T13:00:36;9.10;;;6.20;;
29210;SDS011;16250;49.932;10.980;2024-03-17T13:03:05;6.35;;;5.75;;
29210;SDS011;16250;49.932;10.980;2024-03-17T13:05:32;6.38;;;5.70;;
29210;SDS011;16250;49.932;10.980;2024-03-17T13:07:57;7.32;;;6.13;;
29210;SDS011;16250;49.932;10.980;2024-03-17T13:10:24;7.07;;;5.78;;
29210;SDS011;16250;49.932;10.980;2024-03-17T13:15:28;6.90;;;5.63;;
29210;SDS011;16250;49.932;10.980;2024-03-17T13:17:56;9.30;;;6.20;;
29210;SDS011;16250;49.932;10.980;2024-03-17T13:20:22;9.95;;;6.22;;
29210;SDS011;16250;49.932;10.980;2024-03-17T13:22:47;9.50;;;5.88;;
29210;SDS011;16250;49.932;10.980;2024-03-17T13:25:22;7.90;;;6.15;;
29210;SDS011;16250;49.932;10.980;2024-03-17T13:27:52;7.00;;;5.57;;
29210;SDS011;16250;49.932;10.980;2024-03-17T13:30:19;9.63;;;6.15;;
29210;SDS011;16250;49.932;10.980;2024-03-17T13:32:49;6.65;;;5.82;;
29210;SDS011;16250;49.932;10.980;2024-03-17T13:35:23;6.85;;;6.15;;
29210;SDS011;16250;49.932;10.980;2024-03-17T13:37:50;7.63;;;6.13;;
29210;SDS011;16250;49.932;10.980;2024-03-17T13:40:16;6.20;;;5.43;;
29210;SDS011;16250;49.932;10.980;2024-03-17T13:42:44;7.65;;;6.05;;
29210;SDS011;16250;49.932;10.980;2024-03-17T13:45:10;29.75;;;14.57;;
29210;SDS011;16250;49.932;10.980;2024-03-17T13:47:37;6.97;;;5.53;;
29210;SDS011;16250;49.932;10.980;2024-03-17T13:50:02;6.57;;;5.97;;
29210;SDS011;16250;49.932;10.980;2024-03-17T13:52:31;6.60;;;5.90;;
29210;SDS011;16250;49.932;10.980;2024-03-17T13:54:57;6.80;;;5.70;;
29210;SDS011;16250;49.932;10.980;2024-03-17T13:57:23;7.13;;;5.13;;
29210;SDS011;16250;49.932;10.980;2024-03-17T13:59:50;7.00;;;5.50;;
29210;SDS011;16250;49.932;10.980;2024-03-17T14:02:17;7.22;;;5.43;;
29210;SDS011;16250;49.932;10.980;2024-03-17T14:04:42;6.93;;;5.65;;
29210;SDS011;16250;49.932;10.980;2024-03-17T14:07:08;6.53;;;5.90;;
29210;SDS011;16250;49.932;10.980;2024-03-17T14:09:33;8.07;;;6.43;;
29210;SDS011;16250;49.932;10.980;2024-03-17T14:11:58;7.43;;;5.70;;
29210;SDS011;16250;49.932;10.980;2024-03-17T14:14:24;7.55;;;6.13;;
29210;SDS011;16250;49.932;10.980;2024-03-17T14:16:52;7.68;;;5.70;;
29210;SDS011;16250;49.932;10.980;2024-03-17T14:19:18;6.45;;;5.60;;
29210;SDS011;16250;49.932;10.980;2024-03-17T14:21:44;7.57;;;6.22;;
29210;SDS011;16250;49.932;10.980;2024-03-17T14:24:09;7.28;;;6.47;;
29210;SDS011;16250;49.932;10.980;2024-03-17T14:26:35;7.60;;;6.47;;
29210;SDS011;16250;49.932;10.980;2024-03-17T14:29:01;7.60;;;6.72;;
29210;SDS011;16250;49.932;10.980;2024-03-17T14:31:31;6.63;;;6.03;;
29210;SDS011;16250;49.932;10.980;2024-03-17T14:33:57;7.18;;;6.05;;
29210;SDS011;16250;49.932;10.980;2024-03-17T14:36:22;6.93;;;6.13;;
29210;SDS011;16250;49.932;10.980;2024-03-17T14:38:52;7.47;;;6.18;;
29210;SDS011;16250;49.932;10.980;2024-03-17T14:41:18;6.70;;;5.70;;
29210;SDS011;16250;49.932;10.980;2024-03-17T14:43:43;8.43;;;6.10;;
29210;SDS011;16250;49.932;10.980;2024-03-17T14:46:11;6.38;;;5.78;;
29210;SDS011;16250;49.932;10.980;2024-03-17T14:48:38;8.55;;;5.93;;
29210;SDS011;16250;49.932;10.980;2024-03-17T14:51:08;7.57;;;6.35;;
29210;SDS011;16250;49.932;10.980;2024-03-17T14:53:34;7.28;;;6.50;;
29210;SDS011;16250;49.932;10.980;2024-03-17T14:56:01;8.15;;;6.35;;
29210;SDS011;16250;49.932;10.980;2024-03-17T14:58:27;6.70;;;5.90;;
29210;SDS011;16250;49.932;10.980;2024-03-17T15:00:52;7.55;;;6.10;;
29210;SDS011;16250;49.932;10.980;2024-03-17T15:03:18;7.07;;;5.85;;
29210;SDS011;16250;49.932;10.980;2024-03-17T15:05:43;6.57;;;5.88;;
29210;SDS011;16250;49.932;10.980;2024-03-17T15:08:08;6.15;;;5.38;;
29210;SDS011;16250;49.932;10.980;2024-03-17T15:10:35;6.88;;;5.30;;
29210;SDS011;16250;49.932;10.980;2024-03-17T15:13:00;6.22;;;5.50;;
29210;SDS011;16250;49.932;10.980;2024-03-17T15:15:26;6.72;;;5.50;;
29210;SDS011;16250;49.932;10.980;2024-03-17T15:17:52;6.25;;;4.90;;
29210;SDS011;16250;49.932;10.980;2024-03-17T15:20:17;6.60;;;5.32;;
29210;SDS011;16250;49.932;10.980;2024-03-17T15:22:44;6.18;;;5.38;;
29210;SDS011;16250;49.932;10.980;2024-03-17T15:25:16;7.22;;;5.40;;
29210;SDS011;16250;49.932;10.980;2024-03-17T15:27:42;6.40;;;4.90;;